sensor_id;sensor_type;location;lat;lon;timestamp;pressure;altitude;pressure_sealevel;temperature;humidity
78623;BME280;67943;54.412;9.502;2023-05-07T00:02:50;102112.50;;;8.87;81.79
78623;BME280;67943;54.412;9.502;2023-05-07T00:07:53;102108.91;;;8.75;81.97
78623;BME280;67943;54.412;9.502;2023-05-07T00:12:55;102113.28;;;8.75;82.18
78623;BME280;67943;54.412;9.502;2023-05-07T00:17:56;102111.63;;;8.86;82.03
78623;BME280;67943;54.412;9.502;2023-05-07T00:23:00;102123.03;;;8.93;81.99
78623;BME280;67943;54.412;9.502;2023-05-07T00:28:02;102104.59;;;8.85;82.17
78623;BME280;67943;54.412;9.502;2023-05-07T00:33:04;102100.16;;;8.76;82.80
78623;BME280;67943;54.412;9.502;2023-05-07T00:38:06;102107.19;;;8.80;82.45
78623;BME280;67943;54.412;9.502;2023-05-07T00:43:08;102098.44;;;8.82;82.67
78623;BME280;67943;54.412;9.502;2023-05-07T00:48:09;102097.63;;;8.87;82.56
78623;BME280;67943;54.412;9.502;2023-05-07T00:53:12;102087.97;;;8.82;82.66
78623;BME280;67943;54.412;9.502;2023-05-07T00:58:14;102088.84;;;8.82;82.86
78623;BME280;67943;54.412;9.502;2023-05-07T01:03:15;102096.72;;;8.82;82.62
78623;BME280;67943;54.412;9.502;2023-05-07T01:08:18;102088.91;;;8.94;82.39
78623;BME280;67943;54.412;9.502;2023-05-07T01:13:20;102089.72;;;8.83;83.00
78623;BME280;67943;54.412;9.502;2023-05-07T01:18:22;102082.72;;;8.85;82.90
78623;BME280;67943;54.412;9.502;2023-05-07T01:23:25;102083.63;;;8.87;83.03
78623;BME280;67943;54.412;9.502;2023-05-07T01:28:28;102090.63;;;8.89;83.06
78623;BME280;67943;54.412;9.502;2023-05-07T01:33:32;102086.28;;;8.93;82.64
78623;BME280;67943;54.412;9.502;2023-05-07T01:38:36;102081.03;;;8.93;82.74
78623;BME280;67943;54.412;9.502;2023-05-07T01:43:40;102085.41;;;8.92;82.80
78623;BME280;67943;54.412;9.502;2023-05-07T01:48:42;102077.50;;;8.89;82.93
78623;BME280;67943;54.412;9.502;2023-05-07T01:53:47;102088.03;;;9.00;82.83
78623;BME280;67943;54.412;9.502;2023-05-07T01:58:51;102089.78;;;8.95;82.64
78623;BME280;67943;54.412;9.502;2023-05-07T02:03:53;102085.44;;;9.04;82.74
78623;BME280;67943;54.412;9.502;2023-05-07T02:08:56;102088.97;;;9.08;82.24
78623;BME280;67943;54.412;9.502;2023-05-07T02:13:57;102096.84;;;9.05;82.07
78623;BME280;67943;54.412;9.502;2023-05-07T02:18:59;102106.47;;;9.04;82.08
78623;BME280;67943;54.412;9.502;2023-05-07T02:24:01;102107.34;;;9.05;81.74
78623;BME280;67943;54.412;9.502;2023-05-07T02:29:03;102108.22;;;9.08;81.78
78623;BME280;67943;54.412;9.502;2023-05-07T02:34:04;102102.16;;;9.14;81.23
78623;BME280;67943;54.412;9.502;2023-05-07T02:39:07;102096.06;;;9.27;80.59
78623;BME280;67943;54.412;9.502;2023-05-07T02:44:09;102111.81;;;9.24;80.33
78623;BME280;67943;54.412;9.502;2023-05-07T02:49:10;102114.44;;;9.24;79.68
78623;BME280;67943;54.412;9.502;2023-05-07T02:54:13;102109.22;;;9.33;79.48
78623;BME280;67943;54.412;9.502;2023-05-07T02:59:15;102110.94;;;9.28;79.06
78623;BME280;67943;54.412;9.502;2023-05-07T03:04:16;102109.25;;;9.36;78.66
78623;BME280;67943;54.412;9.502;2023-05-07T03:09:19;102104.13;;;9.70;77.00
78623;BME280;67943;54.412;9.502;2023-05-07T03:14:20;102102.25;;;9.38;77.84
78623;BME280;67943;54.412;9.502;2023-05-07T03:19:22;102117.06;;;9.27;78.45
78623;BME280;67943;54.412;9.502;2023-05-07T03:24:25;102104.00;;;9.39;78.61
78623;BME280;67943;54.412;9.502;2023-05-07T03:29:26;102097.88;;;9.37;78.36
78623;BME280;67943;54.412;9.502;2023-05-07T03:34:28;102107.50;;;9.38;78.33
78623;BME280;67943;54.412;9.502;2023-05-07T03:39:30;102124.94;;;9.27;78.35
78623;BME280;67943;54.412;9.502;2023-05-07T03:44:32;102127.63;;;9.36;77.92
78623;BME280;67943;54.412;9.502;2023-05-07T03:49:34;102116.28;;;9.43;77.11
78623;BME280;67943;54.412;9.502;2023-05-07T03:54:37;102127.69;;;9.53;76.79
78623;BME280;67943;54.412;9.502;2023-05-07T03:59:39;102126.84;;;9.59;75.63
78623;BME280;67943;54.412;9.502;2023-05-07T04:04:40;102130.34;;;9.56;75.82
78623;BME280;67943;54.412;9.502;2023-05-07T04:09:43;102139.13;;;9.66;75.28
78623;BME280;67943;54.412;9.502;2023-05-07T04:14:45;102139.91;;;9.37;75.61
78623;BME280;67943;54.412;9.502;2023-05-07T04:19:46;102134.66;;;9.40;75.71
78623;BME280;67943;54.412;9.502;2023-05-07T04:24:49;102143.47;;;9.47;75.64
78623;BME280;67943;54.412;9.502;2023-05-07T04:29:51;102151.44;;;9.74;73.09
78623;BME280;67943;54.412;9.502;2023-05-07T04:34:56;102155.78;;;9.63;73.28
78623;BME280;67943;54.412;9.502;2023-05-07T04:39:58;102142.59;;;9.53;73.55
78623;BME280;67943;54.412;9.502;2023-05-07T04:45:01;102140.00;;;9.63;73.54
78623;BME280;67943;54.412;9.502;2023-05-07T04:50:03;102143.53;;;9.68;72.81
78623;BME280;67943;54.412;9.502;2023-05-07T04:55:07;102144.41;;;9.70;73.06
78623;BME280;67943;54.412;9.502;2023-05-07T05:00:09;102153.16;;;9.65;73.50
78623;BME280;67943;54.412;9.502;2023-05-07T05:05:11;102152.28;;;9.69;73.01
78623;BME280;67943;54.412;9.502;2023-05-07T05:10:14;102149.66;;;9.69;73.37
78623;BME280;67943;54.412;9.502;2023-05-07T05:15:16;102151.41;;;9.68;73.61
78623;BME280;67943;54.412;9.502;2023-05-07T05:20:18;102156.72;;;9.76;73.57
78623;BME280;67943;54.412;9.502;2023-05-07T05:25:20;102155.00;;;9.93;73.14
78623;BME280;67943;54.412;9.502;2023-05-07T05:30:22;102160.25;;;9.95;72.36
78623;BME280;67943;54.412;9.502;2023-05-07T05:35:23;102165.50;;;9.79;71.78
78623;BME280;67943;54.412;9.502;2023-05-07T05:40:26;102163.72;;;9.86;71.90
78623;BME280;67943;54.412;9.502;2023-05-07T05:45:28;102174.31;;;9.98;72.12
78623;BME280;67943;54.412;9.502;2023-05-07T05:50:29;102174.31;;;10.03;72.17
78623;BME280;67943;54.412;9.502;2023-05-07T05:55:32;102168.19;;;10.02;72.52
78623;BME280;67943;54.412;9.502;2023-05-07T06:00:33;102171.69;;;10.13;71.90
78623;BME280;67943;54.412;9.502;2023-05-07T06:05:35;102176.16;;;10.45;70.30
78623;BME280;67943;54.412;9.502;2023-05-07T06:10:38;102178.78;;;10.33;69.89
78623;BME280;67943;54.412;9.502;2023-05-07T06:15:39;102176.16;;;10.45;70.09
78623;BME280;67943;54.412;9.502;2023-05-07T06:20:41;102178.81;;;10.36;70.73
78623;BME280;67943;54.412;9.502;2023-05-07T06:25:47;102177.03;;;10.52;69.88
78623;BME280;67943;54.412;9.502;2023-05-07T06:30:49;102183.16;;;10.43;70.39
78623;BME280;67943;54.412;9.502;2023-05-07T06:35:51;102185.84;;;10.58;69.83
78623;BME280;67943;54.412;9.502;2023-05-07T06:40:53;102202.50;;;10.66;69.52
78623;BME280;67943;54.412;9.502;2023-05-07T06:45:57;102191.97;;;10.37;70.19
78623;BME280;67943;54.412;9.502;2023-05-07T06:50:58;102191.09;;;10.51;70.29
78623;BME280;67943;54.412;9.502;2023-05-07T06:56:01;102192.84;;;10.58;69.76
78623;BME280;67943;54.412;9.502;2023-05-07T07:01:03;102197.22;;;10.75;68.37
78623;BME280;67943;54.412;9.502;2023-05-07T07:06:04;102190.22;;;10.65;68.99
78623;BME280;67943;54.412;9.502;2023-05-07T07:11:08;102204.25;;;10.76;68.61
78623;BME280;67943;54.412;9.502;2023-05-07T07:16:09;102199.00;;;10.92;68.53
78623;BME280;67943;54.412;9.502;2023-05-07T07:21:11;102198.13;;;10.91;68.53
78623;BME280;67943;54.412;9.502;2023-05-07T07:26:14;102201.59;;;11.02;68.64
78623;BME280;67943;54.412;9.502;2023-05-07T07:31:15;102199.84;;;11.23;67.79
78623;BME280;67943;54.412;9.502;2023-05-07T07:36:17;102195.41;;;11.35;67.41
78623;BME280;67943;54.412;9.502;2023-05-07T07:41:20;102198.88;;;11.53;66.29
78623;BME280;67943;54.412;9.502;2023-05-07T07:46:21;102198.00;;;11.44;66.64
78623;BME280;67943;54.412;9.502;2023-05-07T07:51:22;102208.50;;;11.61;66.10
78623;BME280;67943;54.412;9.502;2023-05-07T07:56:25;102204.09;;;11.68;66.39
78623;BME280;67943;54.412;9.502;2023-05-07T08:01:28;102209.16;;;12.13;65.11
78623;BME280;67943;54.412;9.502;2023-05-07T08:06:30;102200.50;;;11.87;65.87
78623;BME280;67943;54.412;9.502;2023-05-07T08:11:33;102204.91;;;11.91;66.47
78623;BME280;67943;54.412;9.502;2023-05-07T08:16:35;102210.88;;;12.24;64.72
78623;BME280;67943;54.412;9.502;2023-05-07T08:21:38;102193.25;;;12.32;64.17
78623;BME280;67943;54.412;9.502;2023-05-07T08:26:43;102197.63;;;12.33;64.41
78623;BME280;67943;54.412;9.502;2023-05-07T08:31:44;102206.19;;;12.70;62.83
78623;BME280;67943;54.412;9.502;2023-05-07T08:36:45;102208.94;;;12.53;63.69
78623;BME280;67943;54.412;9.502;2023-05-07T08:41:51;102206.97;;;12.76;62.83
78623;BME280;67943;54.412;9.502;2023-05-07T08:46:56;102212.03;;;13.01;61.93
78623;BME280;67943;54.412;9.502;2023-05-07T08:51:58;102217.44;;;12.90;62.07
78623;BME280;67943;54.412;9.502;2023-05-07T08:57:01;102217.41;;;12.93;62.29
78623;BME280;67943;54.412;9.502;2023-05-07T09:02:02;102220.09;;;12.89;62.17
78623;BME280;67943;54.412;9.502;2023-05-07T09:07:04;102225.78;;;13.42;60.88
78623;BME280;67943;54.412;9.502;2023-05-07T09:12:07;102218.44;;;13.66;59.97
78623;BME280;67943;54.412;9.502;2023-05-07T09:17:08;102218.16;;;13.90;59.64
78623;BME280;67943;54.412;9.502;2023-05-07T09:22:10;102216.38;;;13.91;59.45
78623;BME280;67943;54.412;9.502;2023-05-07T09:27:13;102228.63;;;13.99;59.55
78623;BME280;67943;54.412;9.502;2023-05-07T09:32:14;102228.84;;;13.84;60.03
78623;BME280;67943;54.412;9.502;2023-05-07T09:37:16;102225.28;;;13.85;60.53
78623;BME280;67943;54.412;9.502;2023-05-07T09:42:24;102219.88;;;13.94;59.83
78623;BME280;67943;54.412;9.502;2023-05-07T09:47:29;102225.84;;;14.10;58.10
78623;BME280;67943;54.412;9.502;2023-05-07T09:52:34;102212.78;;;13.96;58.99
78623;BME280;67943;54.412;9.502;2023-05-07T09:57:38;102211.88;;;14.60;57.03
78623;BME280;67943;54.412;9.502;2023-05-07T10:02:42;102213.00;;;15.01;56.71
78623;BME280;67943;54.412;9.502;2023-05-07T10:07:48;102217.44;;;15.46;55.26
78623;BME280;67943;54.412;9.502;2023-05-07T10:12:52;102232.78;;;15.77;54.54
78623;BME280;67943;54.412;9.502;2023-05-07T10:17:54;102218.06;;;16.04;53.29
78623;BME280;67943;54.412;9.502;2023-05-07T10:22:56;102225.03;;;15.66;53.08
78623;BME280;67943;54.412;9.502;2023-05-07T10:28:02;102222.59;;;15.99;53.41
78623;BME280;67943;54.412;9.502;2023-05-07T10:33:08;102220.13;;;16.30;52.84
78623;BME280;67943;54.412;9.502;2023-05-07T10:38:12;102218.28;;;16.72;52.21
78623;BME280;67943;54.412;9.502;2023-05-07T10:43:15;102222.91;;;18.52;47.48
78623;BME280;67943;54.412;9.502;2023-05-07T10:48:17;102216.81;;;20.01;43.79
78623;BME280;67943;54.412;9.502;2023-05-07T10:53:23;102219.53;;;20.68;42.29
78623;BME280;67943;54.412;9.502;2023-05-07T10:58:30;102204.84;;;22.72;38.35
78623;BME280;67943;54.412;9.502;2023-05-07T11:03:33;102208.06;;;22.62;38.28
78623;BME280;67943;54.412;9.502;2023-05-07T11:08:54;102210.72;;;21.88;40.26
78623;BME280;67943;54.412;9.502;2023-05-07T11:13:57;102211.91;;;22.20;38.69
78623;BME280;67943;54.412;9.502;2023-05-07T11:18:58;102215.59;;;22.72;37.82
78623;BME280;67943;54.412;9.502;2023-05-07T11:24:01;102206.91;;;22.12;38.24
78623;BME280;67943;54.412;9.502;2023-05-07T11:29:10;102199.78;;;22.11;38.86
78623;BME280;67943;54.412;9.502;2023-05-07T11:34:12;102199.13;;;22.97;37.34
78623;BME280;67943;54.412;9.502;2023-05-07T11:39:28;102199.66;;;23.55;35.96
78623;BME280;67943;54.412;9.502;2023-05-07T11:44:44;102195.41;;;23.17;36.29
78623;BME280;67943;54.412;9.502;2023-05-07T11:49:47;102199.56;;;22.71;37.82
78623;BME280;67943;54.412;9.502;2023-05-07T11:54:49;102200.16;;;22.22;38.74
78623;BME280;67943;54.412;9.502;2023-05-07T11:59:53;102179.88;;;24.05;35.78
78623;BME280;67943;54.412;9.502;2023-05-07T12:04:55;102177.91;;;24.40;35.09
78623;BME280;67943;54.412;9.502;2023-05-07T12:09:56;102184.41;;;24.36;35.09
78623;BME280;67943;54.412;9.502;2023-05-07T12:14:59;102184.06;;;26.03;32.07
78623;BME280;67943;54.412;9.502;2023-05-07T12:20:01;102187.38;;;25.80;33.31
78623;BME280;67943;54.412;9.502;2023-05-07T12:25:04;102182.09;;;23.81;35.81
78623;BME280;67943;54.412;9.502;2023-05-07T12:30:12;102186.38;;;24.01;35.53
78623;BME280;67943;54.412;9.502;2023-05-07T12:35:13;102182.97;;;24.76;34.97
78623;BME280;67943;54.412;9.502;2023-05-07T12:40:15;102187.50;;;24.13;35.66
78623;BME280;67943;54.412;9.502;2023-05-07T12:45:18;102183.63;;;24.18;35.15
78623;BME280;67943;54.412;9.502;2023-05-07T12:50:19;102195.63;;;23.80;36.36
78623;BME280;67943;54.412;9.502;2023-05-07T12:55:22;102185.56;;;23.00;37.28
78623;BME280;67943;54.412;9.502;2023-05-07T13:00:35;102194.00;;;22.93;36.88
78623;BME280;67943;54.412;9.502;2023-05-07T13:05:37;102172.88;;;21.75;40.53
78623;BME280;67943;54.412;9.502;2023-05-07T13:10:38;102185.19;;;21.20;41.02
78623;BME280;67943;54.412;9.502;2023-05-07T13:15:41;102180.22;;;20.90;41.21
78623;BME280;67943;54.412;9.502;2023-05-07T13:20:43;102185.31;;;20.76;41.99
78623;BME280;67943;54.412;9.502;2023-05-07T13:25:44;102177.50;;;20.92;41.73
78623;BME280;67943;54.412;9.502;2023-05-07T13:30:47;102168.28;;;20.57;41.72
78623;BME280;67943;54.412;9.502;2023-05-07T13:35:48;102168.78;;;20.45;41.12
78623;BME280;67943;54.412;9.502;2023-05-07T13:40:50;102156.41;;;19.97;42.28
78623;BME280;67943;54.412;9.502;2023-05-07T13:45:53;102160.78;;;20.00;42.22
78623;BME280;67943;54.412;9.502;2023-05-07T13:50:54;102145.72;;;20.20;42.81
78623;BME280;67943;54.412;9.502;2023-05-07T13:55:56;102174.38;;;20.39;41.84
78623;BME280;67943;54.412;9.502;2023-05-07T14:00:59;102167.66;;;20.50;41.81
78623;BME280;67943;54.412;9.502;2023-05-07T14:06:00;102165.13;;;20.24;42.11
78623;BME280;67943;54.412;9.502;2023-05-07T14:11:02;102157.75;;;20.31;42.46
78623;BME280;67943;54.412;9.502;2023-05-07T14:16:05;102157.56;;;20.35;42.31
78623;BME280;67943;54.412;9.502;2023-05-07T14:21:07;102152.06;;;19.95;43.40
78623;BME280;67943;54.412;9.502;2023-05-07T14:26:09;102146.94;;;20.34;41.38
78623;BME280;67943;54.412;9.502;2023-05-07T14:31:12;102138.91;;;19.90;43.44
78623;BME280;67943;54.412;9.502;2023-05-07T14:36:14;102142.13;;;19.98;41.82
78623;BME280;67943;54.412;9.502;2023-05-07T14:41:15;102134.03;;;19.78;42.83
78623;BME280;67943;54.412;9.502;2023-05-07T14:46:19;102137.53;;;20.02;42.79
78623;BME280;67943;54.412;9.502;2023-05-07T14:51:27;102140.09;;;20.27;41.46
78623;BME280;67943;54.412;9.502;2023-05-07T14:56:29;102146.41;;;20.02;42.74
78623;BME280;67943;54.412;9.502;2023-05-07T15:01:34;102147.66;;;19.70;42.95
78623;BME280;67943;54.412;9.502;2023-05-07T15:06:35;102154.41;;;19.80;42.44
78623;BME280;67943;54.412;9.502;2023-05-07T15:11:37;102155.28;;;19.81;42.82
78623;BME280;67943;54.412;9.502;2023-05-07T15:16:40;102163.06;;;19.64;45.43
78623;BME280;67943;54.412;9.502;2023-05-07T15:21:41;102172.75;;;19.66;45.77
78623;BME280;67943;54.412;9.502;2023-05-07T15:26:44;102168.47;;;19.85;42.92
78623;BME280;67943;54.412;9.502;2023-05-07T15:31:47;102175.22;;;19.94;42.13
78623;BME280;67943;54.412;9.502;2023-05-07T15:36:49;102167.72;;;19.82;43.02
78623;BME280;67943;54.412;9.502;2023-05-07T15:47:38;102176.03;;;19.49;47.15
78623;BME280;67943;54.412;9.502;2023-05-07T15:52:39;102168.50;;;19.36;46.78
78623;BME280;67943;54.412;9.502;2023-05-07T15:58:28;102178.22;;;19.13;47.57
78623;BME280;67943;54.412;9.502;2023-05-07T16:03:31;102168.75;;;19.05;48.41
78623;BME280;67943;54.412;9.502;2023-05-07T16:08:33;102170.06;;;18.93;48.72
78623;BME280;67943;54.412;9.502;2023-05-07T16:13:34;102164.69;;;18.68;48.98
78623;BME280;67943;54.412;9.502;2023-05-07T16:18:37;102164.13;;;18.57;49.02
78623;BME280;67943;54.412;9.502;2023-05-07T16:23:39;102165.03;;;18.56;49.52
78623;BME280;67943;54.412;9.502;2023-05-07T16:28:41;102164.28;;;18.52;49.14
78623;BME280;67943;54.412;9.502;2023-05-07T16:33:44;102169.94;;;18.43;49.60
78623;BME280;67943;54.412;9.502;2023-05-07T16:38:45;102157.66;;;18.38;49.08
78623;BME280;67943;54.412;9.502;2023-05-07T16:43:47;102171.38;;;18.26;49.10
78623;BME280;67943;54.412;9.502;2023-05-07T16:48:50;102167.69;;;18.02;49.98
78623;BME280;67943;54.412;9.502;2023-05-07T16:53:51;102169.41;;;17.75;50.12
78623;BME280;67943;54.412;9.502;2023-05-07T16:58:53;102179.56;;;17.61;50.51
78623;BME280;67943;54.412;9.502;2023-05-07T17:03:56;102175.84;;;17.66;49.68
78623;BME280;67943;54.412;9.502;2023-05-07T17:08:57;102168.59;;;17.40;50.40
78623;BME280;67943;54.412;9.502;2023-05-07T17:13:59;102181.50;;;17.23;50.17
78623;BME280;67943;54.412;9.502;2023-05-07T17:19:01;102184.06;;;16.94;50.32
78623;BME280;67943;54.412;9.502;2023-05-07T17:24:03;102184.44;;;16.78;50.85
78623;BME280;67943;54.412;9.502;2023-05-07T17:29:05;102182.19;;;16.62;50.99
78623;BME280;67943;54.412;9.502;2023-05-07T17:34:08;102180.91;;;16.41;51.41
78623;BME280;67943;54.412;9.502;2023-05-07T17:39:10;102178.53;;;16.29;51.41
78623;BME280;67943;54.412;9.502;2023-05-07T17:44:11;102178.13;;;16.08;51.68
78623;BME280;67943;54.412;9.502;2023-05-07T17:49:14;102185.75;;;15.85;51.95
78623;BME280;67943;54.412;9.502;2023-05-07T17:54:16;102192.06;;;15.78;51.98
78623;BME280;67943;54.412;9.502;2023-05-07T17:59:18;102193.19;;;15.66;52.40
78623;BME280;67943;54.412;9.502;2023-05-07T18:04:21;102198.78;;;15.51;52.63
78623;BME280;67943;54.412;9.502;2023-05-07T18:09:24;102199.84;;;15.42;52.70
78623;BME280;67943;54.412;9.502;2023-05-07T18:14:26;102210.72;;;15.29;53.02
78623;BME280;67943;54.412;9.502;2023-05-07T18:19:29;102217.94;;;15.20;53.09
78623;BME280;67943;54.412;9.502;2023-05-07T18:24:31;102219.88;;;15.09;53.57
78623;BME280;67943;54.412;9.502;2023-05-07T18:29:32;102208.66;;;14.97;53.89
78623;BME280;67943;54.412;9.502;2023-05-07T18:34:35;102216.78;;;14.84;54.32
78623;BME280;67943;54.412;9.502;2023-05-07T18:39:36;102228.56;;;14.68;54.50
78623;BME280;67943;54.412;9.502;2023-05-07T18:44:38;102222.63;;;14.51;54.41
78623;BME280;67943;54.412;9.502;2023-05-07T18:49:41;102221.91;;;14.38;54.88
78623;BME280;67943;54.412;9.502;2023-05-07T18:54:42;102233.63;;;14.20;55.20
78623;BME280;67943;54.412;9.502;2023-05-07T18:59:44;102237.38;;;14.04;55.57
78623;BME280;67943;54.412;9.502;2023-05-07T19:04:47;102248.16;;;13.88;55.88
78623;BME280;67943;54.412;9.502;2023-05-07T19:09:49;102249.25;;;13.73;56.43
78623;BME280;67943;54.412;9.502;2023-05-07T19:14:50;102267.00;;;13.59;56.85
78623;BME280;67943;54.412;9.502;2023-05-07T19:19:54;102268.94;;;13.44;57.13
78623;BME280;67943;54.412;9.502;2023-05-07T19:24:56;102259.38;;;13.31;57.47
78623;BME280;67943;54.412;9.502;2023-05-07T19:29:57;102270.97;;;13.18;57.88
78623;BME280;67943;54.412;9.502;2023-05-07T19:35:00;102282.47;;;13.05;57.97
78623;BME280;67943;54.412;9.502;2023-05-07T19:40:02;102282.59;;;12.93;58.27
78623;BME280;67943;54.412;9.502;2023-05-07T19:45:06;102291.47;;;12.82;58.54
78623;BME280;67943;54.412;9.502;2023-05-07T19:50:10;102292.47;;;12.68;58.83
78623;BME280;67943;54.412;9.502;2023-05-07T19:55:11;102296.03;;;12.56;59.07
78623;BME280;67943;54.412;9.502;2023-05-07T20:00:13;102301.34;;;12.48;59.12
78623;BME280;67943;54.412;9.502;2023-05-07T20:05:16;102301.44;;;12.39;59.37
78623;BME280;67943;54.412;9.502;2023-05-07T20:10:17;102326.09;;;12.29;59.52
78623;BME280;67943;54.412;9.502;2023-05-07T20:15:19;102323.47;;;12.22;59.49
78623;BME280;67943;54.412;9.502;2023-05-07T20:20:22;102338.44;;;12.18;59.70
78623;BME280;67943;54.412;9.502;2023-05-07T20:25:23;102339.38;;;12.09;59.86
78623;BME280;67943;54.412;9.502;2023-05-07T20:30:25;102335.88;;;12.07;59.86
78623;BME280;67943;54.412;9.502;2023-05-07T20:35:28;102332.38;;;11.95;60.29
78623;BME280;67943;54.412;9.502;2023-05-07T20:40:31;102337.66;;;11.86;60.57
78623;BME280;67943;54.412;9.502;2023-05-07T20:45:33;102348.22;;;11.75;60.78
78623;BME280;67943;54.412;9.502;2023-05-07T20:50:36;102341.19;;;11.71;60.94
78623;BME280;67943;54.412;9.502;2023-05-07T20:55:38;102337.69;;;11.60;61.31
78623;BME280;67943;54.412;9.502;2023-05-07T21:00:39;102350.00;;;11.58;61.46
78623;BME280;67943;54.412;9.502;2023-05-07T21:05:42;102346.50;;;11.53;61.42
78623;BME280;67943;54.412;9.502;2023-05-07T21:10:43;102347.38;;;11.45;61.77
78623;BME280;67943;54.412;9.502;2023-05-07T21:15:45;102339.47;;;11.42;61.68
78623;BME280;67943;54.412;9.502;2023-05-07T21:20:48;102351.78;;;11.39;61.77
78623;BME280;67943;54.412;9.502;2023-05-07T21:25:49;102350.00;;;11.38;61.70
78623;BME280;67943;54.412;9.502;2023-05-07T21:30:51;102349.13;;;11.30;61.88
78623;BME280;67943;54.412;9.502;2023-05-07T21:35:54;102350.03;;;11.24;62.03
78623;BME280;67943;54.412;9.502;2023-05-07T21:40:55;102350.91;;;11.22;62.04
78623;BME280;67943;54.412;9.502;2023-05-07T21:45:57;102350.00;;;11.15;62.05
78623;BME280;67943;54.412;9.502;2023-05-07T21:51:01;102351.78;;;11.16;62.10
78623;BME280;67943;54.412;9.502;2023-05-07T21:56:03;102356.13;;;11.08;62.18
78623;BME280;67943;54.412;9.502;2023-05-07T22:01:05;102350.88;;;11.06;62.29
78623;BME280;67943;54.412;9.502;2023-05-07T22:06:12;102355.28;;;10.97;62.62
78623;BME280;67943;54.412;9.502;2023-05-07T22:11:17;102360.50;;;11.00;62.28
78623;BME280;67943;54.412;9.502;2023-05-07T22:16:18;102362.28;;;10.93;62.55
78623;BME280;67943;54.412;9.502;2023-05-07T22:21:22;102364.03;;;10.90;62.26
78623;BME280;67943;54.412;9.502;2023-05-07T22:26:23;102369.31;;;10.91;62.20
78623;BME280;67943;54.412;9.502;2023-05-07T22:31:25;102366.66;;;10.87;62.34
78623;BME280;67943;54.412;9.502;2023-05-07T22:36:27;102370.13;;;10.79;62.42
78623;BME280;67943;54.412;9.502;2023-05-07T22:41:29;102371.00;;;10.78;62.23
78623;BME280;67943;54.412;9.502;2023-05-07T22:46:30;102378.91;;;10.77;61.89
78623;BME280;67943;54.412;9.502;2023-05-07T22:51:33;102374.50;;;10.77;61.57
78623;BME280;67943;54.412;9.502;2023-05-07T22:56:35;102381.53;;;10.75;61.49
78623;BME280;67943;54.412;9.502;2023-05-07T23:01:36;102386.78;;;10.75;61.24
78623;BME280;67943;54.412;9.502;2023-05-07T23:06:39;102385.91;;;10.66;61.35
78623;BME280;67943;54.412;9.502;2023-05-07T23:11:41;102388.53;;;10.63;61.25
78623;BME280;67943;54.412;9.502;2023-05-07T23:16:43;102392.91;;;10.61;61.35
78623;BME280;67943;54.412;9.502;2023-05-07T23:21:46;102389.41;;;10.65;61.07
78623;BME280;67943;54.412;9.502;2023-05-07T23:26:47;102392.91;;;10.64;60.91
78623;BME280;67943;54.412;9.502;2023-05-07T23:31:49;102399.06;;;10.61;60.92
78623;BME280;67943;54.412;9.502;2023-05-07T23:36:52;102405.16;;;10.57;60.89
78623;BME280;67943;54.412;9.502;2023-05-07T23:41:54;102408.69;;;10.56;61.12
78623;BME280;67943;54.412;9.502;2023-05-07T23:46:55;102410.41;;;10.51;61.23
78623;BME280;67943;54.412;9.502;2023-05-07T23:51:58;102414.75;;;10.46;61.44
78623;BME280;67943;54.412;9.502;2023-05-07T23:56:59;102421.81;;;10.53;61.48
